Kornman, Colorado
Current Conditions -  °F | °C
As of 12:53 PM on Wednesday 17 Dec 2014 (Local Time) from KLAA Reporting Station
Overcast Overcast  
Wind Chill: 22°   Ceiling: 800
Heat Index: 28°   Visibility: 9mi
Dew Point: 24°   Wind: 6mph
Humidity: 85%   Direction: 340°NNW
Pressure: 29.95"   Gusts: NA
Location:  37.885°N, 102.667°W
Report Text: KLAA 171953Z AUTO 34005KT 9SM OVC008 M02/M04 A2995 RMK AO2 SLP166 T10221044
Loading
Personal Weather Stations






























Interactive Weather Map New forecast layout! Learn more

10-Day Weather Forecast

Advertisements
Track Severe Weather on mobile